sensor_id;sensor_type;location;lat;lon;timestamp;temperature;humidity
16154;DHT22;8182;55.648;13.208;2024-02-28T00:00:45;1.30;1.00
16154;DHT22;8182;55.648;13.208;2024-02-28T00:03:12;1.30;1.00
16154;DHT22;8182;55.648;13.208;2024-02-28T00:05:39;1.30;1.00
16154;DHT22;8182;55.648;13.208;2024-02-28T00:08:07;1.20;1.00
16154;DHT22;8182;55.648;13.208;2024-02-28T00:10:34;1.30;1.00
16154;DHT22;8182;55.648;13.208;2024-02-28T00:13:01;1.20;1.00
16154;DHT22;8182;55.648;13.208;2024-02-28T00:15:27;1.20;1.00
16154;DHT22;8182;55.648;13.208;2024-02-28T00:17:54;1.20;1.00
16154;DHT22;8182;55.648;13.208;2024-02-28T00:20:21;1.30;1.00
16154;DHT22;8182;55.648;13.208;2024-02-28T00:22:49;1.30;1.00
16154;DHT22;8182;55.648;13.208;2024-02-28T00:25:17;1.30;1.00
16154;DHT22;8182;55.648;13.208;2024-02-28T00:27:44;1.20;1.00
16154;DHT22;8182;55.648;13.208;2024-02-28T00:30:12;1.20;1.00
16154;DHT22;8182;55.648;13.208;2024-02-28T00:32:39;1.10;1.00
16154;DHT22;8182;55.648;13.208;2024-02-28T00:35:07;1.10;1.00
16154;DHT22;8182;55.648;13.208;2024-02-28T00:37:33;1.20;1.00
16154;DHT22;8182;55.648;13.208;2024-02-28T00:40:00;1.20;1.00
16154;DHT22;8182;55.648;13.208;2024-02-28T00:42:29;1.30;1.00
16154;DHT22;8182;55.648;13.208;2024-02-28T00:44:55;1.20;1.00
16154;DHT22;8182;55.648;13.208;2024-02-28T00:47:24;1.20;1.00
16154;DHT22;8182;55.648;13.208;2024-02-28T00:49:52;1.30;1.00
16154;DHT22;8182;55.648;13.208;2024-02-28T00:52:19;1.30;1.00
16154;DHT22;8182;55.648;13.208;2024-02-28T00:54:46;1.30;1.00
16154;DHT22;8182;55.648;13.208;2024-02-28T00:57:16;1.20;1.00
16154;DHT22;8182;55.648;13.208;2024-02-28T00:59:44;1.30;1.00
16154;DHT22;8182;55.648;13.208;2024-02-28T01:02:11;1.20;1.00
16154;DHT22;8182;55.648;13.208;2024-02-28T01:04:39;1.20;1.00
16154;DHT22;8182;55.648;13.208;2024-02-28T01:07:06;1.30;1.00
16154;DHT22;8182;55.648;13.208;2024-02-28T01:09:33;1.20;1.00
16154;DHT22;8182;55.648;13.208;2024-02-28T01:12:00;1.20;1.00
16154;DHT22;8182;55.648;13.208;2024-02-28T01:14:27;1.20;1.00
16154;DHT22;8182;55.648;13.208;2024-02-28T01:16:55;1.30;1.00
16154;DHT22;8182;55.648;13.208;2024-02-28T01:19:22;1.20;1.00
16154;DHT22;8182;55.648;13.208;2024-02-28T01:21:49;1.30;1.00
16154;DHT22;8182;55.648;13.208;2024-02-28T01:24:16;1.30;1.00
16154;DHT22;8182;55.648;13.208;2024-02-28T01:26:43;1.20;1.00
16154;DHT22;8182;55.648;13.208;2024-02-28T01:29:13;1.20;1.00
16154;DHT22;8182;55.648;13.208;2024-02-28T01:31:40;1.20;1.00
16154;DHT22;8182;55.648;13.208;2024-02-28T01:34:08;1.20;1.00
16154;DHT22;8182;55.648;13.208;2024-02-28T01:36:35;1.20;1.00
16154;DHT22;8182;55.648;13.208;2024-02-28T01:39:02;1.20;1.00
16154;DHT22;8182;55.648;13.208;2024-02-28T01:41:29;1.20;1.00
16154;DHT22;8182;55.648;13.208;2024-02-28T01:43:56;1.30;1.00
16154;DHT22;8182;55.648;13.208;2024-02-28T01:46:25;1.30;1.00
16154;DHT22;8182;55.648;13.208;2024-02-28T01:48:52;1.30;1.00
16154;DHT22;8182;55.648;13.208;2024-02-28T01:51:21;1.20;1.00
16154;DHT22;8182;55.648;13.208;2024-02-28T01:53:49;1.30;1.00
16154;DHT22;8182;55.648;13.208;2024-02-28T01:56:17;1.30;1.00
16154;DHT22;8182;55.648;13.208;2024-02-28T01:58:46;1.20;1.00
16154;DHT22;8182;55.648;13.208;2024-02-28T02:01:14;1.30;1.00
16154;DHT22;8182;55.648;13.208;2024-02-28T02:03:44;1.30;1.00
16154;DHT22;8182;55.648;13.208;2024-02-28T02:06:11;1.40;1.00
16154;DHT22;8182;55.648;13.208;2024-02-28T02:08:40;1.20;1.00
16154;DHT22;8182;55.648;13.208;2024-02-28T02:11:09;1.30;1.00
16154;DHT22;8182;55.648;13.208;2024-02-28T02:13:36;1.30;1.00
16154;DHT22;8182;55.648;13.208;2024-02-28T02:16:14;1.30;1.00
16154;DHT22;8182;55.648;13.208;2024-02-28T02:18:40;1.20;1.00
16154;DHT22;8182;55.648;13.208;2024-02-28T02:21:09;1.30;1.00
16154;DHT22;8182;55.648;13.208;2024-02-28T02:23:38;1.30;1.00
16154;DHT22;8182;55.648;13.208;2024-02-28T02:26:07;1.40;1.00
16154;DHT22;8182;55.648;13.208;2024-02-28T02:28:34;1.40;1.00
16154;DHT22;8182;55.648;13.208;2024-02-28T02:31:01;1.40;1.00
16154;DHT22;8182;55.648;13.208;2024-02-28T02:33:31;1.50;1.00
16154;DHT22;8182;55.648;13.208;2024-02-28T02:35:58;1.40;1.00
16154;DHT22;8182;55.648;13.208;2024-02-28T02:38:25;1.30;1.00
16154;DHT22;8182;55.648;13.208;2024-02-28T02:40:53;1.40;1.00
16154;DHT22;8182;55.648;13.208;2024-02-28T02:43:20;1.30;1.00
16154;DHT22;8182;55.648;13.208;2024-02-28T02:45:47;1.40;1.00
16154;DHT22;8182;55.648;13.208;2024-02-28T02:48:13;1.40;1.00
16154;DHT22;8182;55.648;13.208;2024-02-28T02:50:40;1.40;1.00
16154;DHT22;8182;55.648;13.208;2024-02-28T02:53:09;1.40;1.00
16154;DHT22;8182;55.648;13.208;2024-02-28T02:55:37;1.50;1.00
16154;DHT22;8182;55.648;13.208;2024-02-28T02:58:05;1.40;1.00
16154;DHT22;8182;55.648;13.208;2024-02-28T03:00:32;1.40;1.00
16154;DHT22;8182;55.648;13.208;2024-02-28T03:02:58;1.40;1.00
16154;DHT22;8182;55.648;13.208;2024-02-28T03:05:25;1.40;1.00
16154;DHT22;8182;55.648;13.208;2024-02-28T03:07:52;1.40;1.00
16154;DHT22;8182;55.648;13.208;2024-02-28T03:10:19;1.40;1.00
16154;DHT22;8182;55.648;13.208;2024-02-28T03:12:45;1.40;1.00
16154;DHT22;8182;55.648;13.208;2024-02-28T03:15:13;1.40;1.00
16154;DHT22;8182;55.648;13.208;2024-02-28T03:17:40;1.40;1.00
16154;DHT22;8182;55.648;13.208;2024-02-28T03:20:08;1.50;1.00
16154;DHT22;8182;55.648;13.208;2024-02-28T03:22:37;1.60;1.00
16154;DHT22;8182;55.648;13.208;2024-02-28T03:25:05;1.60;1.00
16154;DHT22;8182;55.648;13.208;2024-02-28T03:27:32;1.50;1.00
16154;DHT22;8182;55.648;13.208;2024-02-28T03:29:58;1.50;1.00
16154;DHT22;8182;55.648;13.208;2024-02-28T03:32:27;1.60;1.00
16154;DHT22;8182;55.648;13.208;2024-02-28T03:34:53;1.60;1.00
16154;DHT22;8182;55.648;13.208;2024-02-28T03:37:20;1.60;1.00
16154;DHT22;8182;55.648;13.208;2024-02-28T03:39:47;1.50;1.00
16154;DHT22;8182;55.648;13.208;2024-02-28T03:42:14;1.50;1.00
16154;DHT22;8182;55.648;13.208;2024-02-28T03:44:41;1.60;1.00
16154;DHT22;8182;55.648;13.208;2024-02-28T03:47:09;1.60;1.00
16154;DHT22;8182;55.648;13.208;2024-02-28T03:49:37;1.60;1.00
16154;DHT22;8182;55.648;13.208;2024-02-28T03:52:04;1.60;1.00
16154;DHT22;8182;55.648;13.208;2024-02-28T03:54:31;1.50;1.00
16154;DHT22;8182;55.648;13.208;2024-02-28T03:56:59;1.60;1.00
16154;DHT22;8182;55.648;13.208;2024-02-28T03:59:26;1.60;1.00
16154;DHT22;8182;55.648;13.208;2024-02-28T04:01:53;1.70;1.00
16154;DHT22;8182;55.648;13.208;2024-02-28T04:04:20;1.70;1.00
16154;DHT22;8182;55.648;13.208;2024-02-28T04:06:48;1.70;1.00
16154;DHT22;8182;55.648;13.208;2024-02-28T04:09:15;1.70;1.00
16154;DHT22;8182;55.648;13.208;2024-02-28T04:11:42;1.70;1.00
16154;DHT22;8182;55.648;13.208;2024-02-28T04:14:09;1.70;1.00
16154;DHT22;8182;55.648;13.208;2024-02-28T04:16:41;1.80;1.00
16154;DHT22;8182;55.648;13.208;2024-02-28T04:19:09;1.80;1.00
16154;DHT22;8182;55.648;13.208;2024-02-28T04:21:36;1.80;1.00
16154;DHT22;8182;55.648;13.208;2024-02-28T04:24:05;1.70;1.00
16154;DHT22;8182;55.648;13.208;2024-02-28T04:26:32;1.80;1.00
16154;DHT22;8182;55.648;13.208;2024-02-28T04:29:01;1.70;1.00
16154;DHT22;8182;55.648;13.208;2024-02-28T04:31:30;1.80;1.00
16154;DHT22;8182;55.648;13.208;2024-02-28T04:33:57;1.80;1.00
16154;DHT22;8182;55.648;13.208;2024-02-28T04:36:24;1.90;1.00
16154;DHT22;8182;55.648;13.208;2024-02-28T04:38:51;1.80;1.00
16154;DHT22;8182;55.648;13.208;2024-02-28T04:41:19;1.90;1.00
16154;DHT22;8182;55.648;13.208;2024-02-28T04:43:46;1.90;1.00
16154;DHT22;8182;55.648;13.208;2024-02-28T04:46:13;1.90;1.00
16154;DHT22;8182;55.648;13.208;2024-02-28T04:48:40;1.90;1.00
16154;DHT22;8182;55.648;13.208;2024-02-28T04:51:07;1.90;1.00
16154;DHT22;8182;55.648;13.208;2024-02-28T04:53:35;1.90;1.00
16154;DHT22;8182;55.648;13.208;2024-02-28T04:56:02;1.90;1.00
16154;DHT22;8182;55.648;13.208;2024-02-28T04:58:31;1.90;1.00
16154;DHT22;8182;55.648;13.208;2024-02-28T05:00:57;1.90;1.00
16154;DHT22;8182;55.648;13.208;2024-02-28T05:03:24;1.90;1.00
16154;DHT22;8182;55.648;13.208;2024-02-28T05:05:51;1.90;1.00
16154;DHT22;8182;55.648;13.208;2024-02-28T05:08:20;1.90;1.00
16154;DHT22;8182;55.648;13.208;2024-02-28T05:10:47;1.90;1.00
16154;DHT22;8182;55.648;13.208;2024-02-28T05:13:14;2.00;1.00
16154;DHT22;8182;55.648;13.208;2024-02-28T05:15:45;2.00;1.00
16154;DHT22;8182;55.648;13.208;2024-02-28T05:18:15;2.00;1.00
16154;DHT22;8182;55.648;13.208;2024-02-28T05:20:44;2.00;1.00
16154;DHT22;8182;55.648;13.208;2024-02-28T05:23:10;2.00;1.00
16154;DHT22;8182;55.648;13.208;2024-02-28T05:25:38;2.00;1.00
16154;DHT22;8182;55.648;13.208;2024-02-28T05:28:06;2.00;1.00
16154;DHT22;8182;55.648;13.208;2024-02-28T05:30:32;2.00;1.00
16154;DHT22;8182;55.648;13.208;2024-02-28T05:33:01;2.00;1.00
16154;DHT22;8182;55.648;13.208;2024-02-28T05:35:28;2.00;1.00
16154;DHT22;8182;55.648;13.208;2024-02-28T05:37:54;2.00;1.00
16154;DHT22;8182;55.648;13.208;2024-02-28T05:40:22;2.00;1.00
16154;DHT22;8182;55.648;13.208;2024-02-28T05:42:49;2.00;1.00
16154;DHT22;8182;55.648;13.208;2024-02-28T05:45:16;2.00;1.00
16154;DHT22;8182;55.648;13.208;2024-02-28T05:47:43;2.00;1.00
16154;DHT22;8182;55.648;13.208;2024-02-28T05:50:14;2.00;1.00
16154;DHT22;8182;55.648;13.208;2024-02-28T05:52:47;2.10;1.00
16154;DHT22;8182;55.648;13.208;2024-02-28T05:55:14;2.00;1.00
16154;DHT22;8182;55.648;13.208;2024-02-28T05:57:41;2.00;1.00
16154;DHT22;8182;55.648;13.208;2024-02-28T06:00:09;2.00;1.00
16154;DHT22;8182;55.648;13.208;2024-02-28T06:02:36;2.00;1.00
16154;DHT22;8182;55.648;13.208;2024-02-28T06:05:04;2.00;1.00
16154;DHT22;8182;55.648;13.208;2024-02-28T06:07:32;2.00;1.00
16154;DHT22;8182;55.648;13.208;2024-02-28T06:10:00;2.00;1.00
16154;DHT22;8182;55.648;13.208;2024-02-28T06:12:26;2.10;1.00
16154;DHT22;8182;55.648;13.208;2024-02-28T06:14:53;2.00;1.00
16154;DHT22;8182;55.648;13.208;2024-02-28T06:17:20;2.10;1.00
16154;DHT22;8182;55.648;13.208;2024-02-28T06:19:47;2.10;1.00
16154;DHT22;8182;55.648;13.208;2024-02-28T06:22:14;2.10;1.00
16154;DHT22;8182;55.648;13.208;2024-02-28T06:24:45;2.10;1.00
16154;DHT22;8182;55.648;13.208;2024-02-28T06:27:14;2.10;1.00
16154;DHT22;8182;55.648;13.208;2024-02-28T06:29:41;2.10;1.00
16154;DHT22;8182;55.648;13.208;2024-02-28T06:32:08;2.10;1.00
16154;DHT22;8182;55.648;13.208;2024-02-28T06:34:38;2.20;1.00
16154;DHT22;8182;55.648;13.208;2024-02-28T06:37:05;2.20;1.00
16154;DHT22;8182;55.648;13.208;2024-02-28T06:39:32;2.20;1.00
16154;DHT22;8182;55.648;13.208;2024-02-28T06:42:00;2.20;1.00
16154;DHT22;8182;55.648;13.208;2024-02-28T06:44:27;2.20;1.00
16154;DHT22;8182;55.648;13.208;2024-02-28T06:46:54;2.30;1.00
16154;DHT22;8182;55.648;13.208;2024-02-28T06:49:20;2.30;1.00
16154;DHT22;8182;55.648;13.208;2024-02-28T06:51:49;2.30;1.00
16154;DHT22;8182;55.648;13.208;2024-02-28T06:54:16;2.30;1.00
16154;DHT22;8182;55.648;13.208;2024-02-28T06:56:43;2.30;1.00
16154;DHT22;8182;55.648;13.208;2024-02-28T06:59:15;2.30;1.00
16154;DHT22;8182;55.648;13.208;2024-02-28T07:01:41;2.30;1.00
16154;DHT22;8182;55.648;13.208;2024-02-28T07:04:09;2.40;1.00
16154;DHT22;8182;55.648;13.208;2024-02-28T07:06:35;2.40;1.00
16154;DHT22;8182;55.648;13.208;2024-02-28T07:09:03;2.40;1.00
16154;DHT22;8182;55.648;13.208;2024-02-28T07:11:29;2.40;1.00
16154;DHT22;8182;55.648;13.208;2024-02-28T07:13:56;2.40;1.00
16154;DHT22;8182;55.648;13.208;2024-02-28T07:16:27;2.40;1.00
16154;DHT22;8182;55.648;13.208;2024-02-28T07:18:54;2.40;1.00
16154;DHT22;8182;55.648;13.208;2024-02-28T07:21:21;2.50;1.00
16154;DHT22;8182;55.648;13.208;2024-02-28T07:23:48;2.50;1.00
16154;DHT22;8182;55.648;13.208;2024-02-28T07:26:15;2.50;1.00
16154;DHT22;8182;55.648;13.208;2024-02-28T07:28:45;2.50;1.00
16154;DHT22;8182;55.648;13.208;2024-02-28T07:31:15;2.60;1.00
16154;DHT22;8182;55.648;13.208;2024-02-28T07:33:43;2.60;1.00
16154;DHT22;8182;55.648;13.208;2024-02-28T07:36:10;2.60;1.00
16154;DHT22;8182;55.648;13.208;2024-02-28T07:38:37;2.60;1.00
16154;DHT22;8182;55.648;13.208;2024-02-28T07:41:04;2.60;1.00
16154;DHT22;8182;55.648;13.208;2024-02-28T07:43:31;2.70;1.00
16154;DHT22;8182;55.648;13.208;2024-02-28T07:46:02;2.70;1.00
16154;DHT22;8182;55.648;13.208;2024-02-28T07:48:32;2.70;1.00
16154;DHT22;8182;55.648;13.208;2024-02-28T07:51:00;2.70;1.00
16154;DHT22;8182;55.648;13.208;2024-02-28T07:53:27;2.70;1.00
16154;DHT22;8182;55.648;13.208;2024-02-28T07:55:54;2.80;1.00
16154;DHT22;8182;55.648;13.208;2024-02-28T07:58:21;2.80;1.00
16154;DHT22;8182;55.648;13.208;2024-02-28T08:00:49;2.80;1.00
16154;DHT22;8182;55.648;13.208;2024-02-28T08:03:18;2.80;1.00
16154;DHT22;8182;55.648;13.208;2024-02-28T08:05:45;2.80;1.00
16154;DHT22;8182;55.648;13.208;2024-02-28T08:08:17;2.80;1.00
16154;DHT22;8182;55.648;13.208;2024-02-28T08:10:44;2.90;1.00
16154;DHT22;8182;55.648;13.208;2024-02-28T08:13:14;2.90;1.00
16154;DHT22;8182;55.648;13.208;2024-02-28T08:15:41;2.90;1.00
16154;DHT22;8182;55.648;13.208;2024-02-28T08:18:08;2.90;1.00
16154;DHT22;8182;55.648;13.208;2024-02-28T08:20:38;3.00;1.00
16154;DHT22;8182;55.648;13.208;2024-02-28T08:23:06;3.00;1.00
16154;DHT22;8182;55.648;13.208;2024-02-28T08:25:34;3.10;1.00
16154;DHT22;8182;55.648;13.208;2024-02-28T08:28:01;3.10;1.00
16154;DHT22;8182;55.648;13.208;2024-02-28T08:30:28;3.10;1.00
16154;DHT22;8182;55.648;13.208;2024-02-28T08:32:56;3.10;1.00
16154;DHT22;8182;55.648;13.208;2024-02-28T08:35:23;3.10;1.00
16154;DHT22;8182;55.648;13.208;2024-02-28T08:37:50;3.00;1.00
16154;DHT22;8182;55.648;13.208;2024-02-28T08:40:17;3.00;1.00
16154;DHT22;8182;55.648;13.208;2024-02-28T08:42:45;3.00;1.00
16154;DHT22;8182;55.648;13.208;2024-02-28T08:45:13;3.00;1.00
16154;DHT22;8182;55.648;13.208;2024-02-28T08:47:41;3.00;1.00
16154;DHT22;8182;55.648;13.208;2024-02-28T08:50:08;3.10;1.00
16154;DHT22;8182;55.648;13.208;2024-02-28T08:52:35;3.20;1.00
16154;DHT22;8182;55.648;13.208;2024-02-28T08:55:03;3.30;1.00
16154;DHT22;8182;55.648;13.208;2024-02-28T08:57:30;3.30;1.00
16154;DHT22;8182;55.648;13.208;2024-02-28T08:59:59;3.30;1.00
16154;DHT22;8182;55.648;13.208;2024-02-28T09:02:28;3.40;1.00
16154;DHT22;8182;55.648;13.208;2024-02-28T09:04:55;3.40;1.00
16154;DHT22;8182;55.648;13.208;2024-02-28T09:07:22;3.40;1.00
16154;DHT22;8182;55.648;13.208;2024-02-28T09:09:49;3.40;1.00
16154;DHT22;8182;55.648;13.208;2024-02-28T09:12:16;3.50;1.00
16154;DHT22;8182;55.648;13.208;2024-02-28T09:14:46;3.60;1.00
16154;DHT22;8182;55.648;13.208;2024-02-28T09:17:16;3.70;1.00
16154;DHT22;8182;55.648;13.208;2024-02-28T09:19:43;4.10;1.00
16154;DHT22;8182;55.648;13.208;2024-02-28T09:22:10;4.30;1.00
16154;DHT22;8182;55.648;13.208;2024-02-28T09:24:37;4.40;1.00
16154;DHT22;8182;55.648;13.208;2024-02-28T09:27:03;4.50;1.00
16154;DHT22;8182;55.648;13.208;2024-02-28T09:29:30;5.10;1.00
16154;DHT22;8182;55.648;13.208;2024-02-28T09:31:57;4.80;1.00
16154;DHT22;8182;55.648;13.208;2024-02-28T09:34:25;5.10;1.00
16154;DHT22;8182;55.648;13.208;2024-02-28T09:36:52;5.60;1.00
16154;DHT22;8182;55.648;13.208;2024-02-28T09:39:19;5.90;1.00
16154;DHT22;8182;55.648;13.208;2024-02-28T09:41:50;5.70;1.00
16154;DHT22;8182;55.648;13.208;2024-02-28T09:44:18;5.70;1.00
16154;DHT22;8182;55.648;13.208;2024-02-28T09:46:46;7.00;1.00
16154;DHT22;8182;55.648;13.208;2024-02-28T09:49:18;7.20;1.00
16154;DHT22;8182;55.648;13.208;2024-02-28T09:51:49;8.40;1.00
16154;DHT22;8182;55.648;13.208;2024-02-28T09:54:16;7.10;1.00
16154;DHT22;8182;55.648;13.208;2024-02-28T09:56:45;6.90;1.00
16154;DHT22;8182;55.648;13.208;2024-02-28T09:59:14;8.30;1.00
16154;DHT22;8182;55.648;13.208;2024-02-28T10:01:43;9.60;1.00
16154;DHT22;8182;55.648;13.208;2024-02-28T10:04:10;8.00;1.00
16154;DHT22;8182;55.648;13.208;2024-02-28T10:06:38;7.40;1.00
16154;DHT22;8182;55.648;13.208;2024-02-28T10:09:07;6.50;1.00
16154;DHT22;8182;55.648;13.208;2024-02-28T10:11:36;6.00;1.00
16154;DHT22;8182;55.648;13.208;2024-02-28T10:14:03;5.90;1.00
16154;DHT22;8182;55.648;13.208;2024-02-28T10:16:30;5.80;1.00
16154;DHT22;8182;55.648;13.208;2024-02-28T10:18:57;5.60;1.00
16154;DHT22;8182;55.648;13.208;2024-02-28T10:21:24;5.50;1.00
16154;DHT22;8182;55.648;13.208;2024-02-28T10:23:51;5.70;1.00
16154;DHT22;8182;55.648;13.208;2024-02-28T10:26:20;5.60;1.00
16154;DHT22;8182;55.648;13.208;2024-02-28T10:28:46;5.80;1.00
16154;DHT22;8182;55.648;13.208;2024-02-28T10:31:14;5.70;1.00
16154;DHT22;8182;55.648;13.208;2024-02-28T10:33:45;5.70;1.00
16154;DHT22;8182;55.648;13.208;2024-02-28T10:36:15;5.70;1.00
16154;DHT22;8182;55.648;13.208;2024-02-28T10:38:44;5.60;1.00
16154;DHT22;8182;55.648;13.208;2024-02-28T10:41:12;5.50;1.00
16154;DHT22;8182;55.648;13.208;2024-02-28T10:43:44;5.60;1.00
16154;DHT22;8182;55.648;13.208;2024-02-28T10:46:14;6.90;1.00
16154;DHT22;8182;55.648;13.208;2024-02-28T10:48:44;6.50;1.00
16154;DHT22;8182;55.648;13.208;2024-02-28T10:51:15;6.10;1.00
16154;DHT22;8182;55.648;13.208;2024-02-28T10:53:47;5.70;1.00
16154;DHT22;8182;55.648;13.208;2024-02-28T10:56:15;5.40;1.00
16154;DHT22;8182;55.648;13.208;2024-02-28T10:58:50;5.30;1.00
16154;DHT22;8182;55.648;13.208;2024-02-28T11:01:18;5.50;1.00
16154;DHT22;8182;55.648;13.208;2024-02-28T11:03:45;5.50;1.00
16154;DHT22;8182;55.648;13.208;2024-02-28T11:06:22;5.50;1.00
16154;DHT22;8182;55.648;13.208;2024-02-28T11:08:49;5.30;1.00
16154;DHT22;8182;55.648;13.208;2024-02-28T11:11:20;5.40;1.00
16154;DHT22;8182;55.648;13.208;2024-02-28T11:13:55;5.90;1.00
16154;DHT22;8182;55.648;13.208;2024-02-28T11:16:29;6.10;1.00
16154;DHT22;8182;55.648;13.208;2024-02-28T11:18:56;6.10;1.00
16154;DHT22;8182;55.648;13.208;2024-02-28T11:21:24;6.10;1.00
16154;DHT22;8182;55.648;13.208;2024-02-28T11:23:52;6.20;1.00
16154;DHT22;8182;55.648;13.208;2024-02-28T11:26:22;6.20;1.00
16154;DHT22;8182;55.648;13.208;2024-02-28T11:28:50;6.10;1.00
16154;DHT22;8182;55.648;13.208;2024-02-28T11:31:18;6.10;1.00
16154;DHT22;8182;55.648;13.208;2024-02-28T11:33:45;6.50;1.00
16154;DHT22;8182;55.648;13.208;2024-02-28T11:36:15;6.30;1.00
16154;DHT22;8182;55.648;13.208;2024-02-28T11:38:45;6.20;1.00
16154;DHT22;8182;55.648;13.208;2024-02-28T11:41:15;6.20;1.00
16154;DHT22;8182;55.648;13.208;2024-02-28T11:43:51;6.20;1.00
16154;DHT22;8182;55.648;13.208;2024-02-28T11:46:20;6.30;1.00
16154;DHT22;8182;55.648;13.208;2024-02-28T11:48:47;6.20;1.00
16154;DHT22;8182;55.648;13.208;2024-02-28T11:51:14;6.30;1.00
16154;DHT22;8182;55.648;13.208;2024-02-28T11:53:41;6.20;1.00
16154;DHT22;8182;55.648;13.208;2024-02-28T11:56:10;6.10;1.00
16154;DHT22;8182;55.648;13.208;2024-02-28T11:58:36;5.90;1.00
16154;DHT22;8182;55.648;13.208;2024-02-28T12:01:03;5.80;1.00
16154;DHT22;8182;55.648;13.208;2024-02-28T12:03:31;5.80;1.00
16154;DHT22;8182;55.648;13.208;2024-02-28T12:05:58;5.90;1.00
16154;DHT22;8182;55.648;13.208;2024-02-28T12:08:26;5.80;1.00
16154;DHT22;8182;55.648;13.208;2024-02-28T12:10:53;5.80;1.00
16154;DHT22;8182;55.648;13.208;2024-02-28T12:13:22;5.70;1.00
16154;DHT22;8182;55.648;13.208;2024-02-28T12:15:49;5.80;1.00
16154;DHT22;8182;55.648;13.208;2024-02-28T12:18:16;5.70;1.00
16154;DHT22;8182;55.648;13.208;2024-02-28T12:20:45;5.80;1.00
16154;DHT22;8182;55.648;13.208;2024-02-28T12:23:15;5.80;1.00
16154;DHT22;8182;55.648;13.208;2024-02-28T12:25:43;5.70;1.00
16154;DHT22;8182;55.648;13.208;2024-02-28T12:28:15;5.70;1.00
16154;DHT22;8182;55.648;13.208;2024-02-28T12:30:45;5.70;1.00
16154;DHT22;8182;55.648;13.208;2024-02-28T12:33:15;5.80;1.00
16154;DHT22;8182;55.648;13.208;2024-02-28T12:35:46;5.90;1.00
16154;DHT22;8182;55.648;13.208;2024-02-28T12:38:13;5.80;1.00
16154;DHT22;8182;55.648;13.208;2024-02-28T12:40:40;5.80;1.00
16154;DHT22;8182;55.648;13.208;2024-02-28T12:43:07;5.80;1.00
16154;DHT22;8182;55.648;13.208;2024-02-28T12:45:34;5.70;1.00
16154;DHT22;8182;55.648;13.208;2024-02-28T12:48:01;5.70;1.00
16154;DHT22;8182;55.648;13.208;2024-02-28T12:50:28;5.70;1.00
16154;DHT22;8182;55.648;13.208;2024-02-28T12:52:56;5.70;1.00
16154;DHT22;8182;55.648;13.208;2024-02-28T12:55:23;5.80;1.00
16154;DHT22;8182;55.648;13.208;2024-02-28T12:57:50;5.80;1.00
16154;DHT22;8182;55.648;13.208;2024-02-28T13:00:18;5.60;1.00
16154;DHT22;8182;55.648;13.208;2024-02-28T13:02:45;5.60;1.00
16154;DHT22;8182;55.648;13.208;2024-02-28T13:05:12;5.60;1.00
16154;DHT22;8182;55.648;13.208;2024-02-28T13:07:39;5.70;1.00
16154;DHT22;8182;55.648;13.208;2024-02-28T13:10:08;5.70;1.00
16154;DHT22;8182;55.648;13.208;2024-02-28T13:12:36;5.70;1.00
16154;DHT22;8182;55.648;13.208;2024-02-28T13:15:04;5.70;1.00
16154;DHT22;8182;55.648;13.208;2024-02-28T13:17:31;5.70;1.00
16154;DHT22;8182;55.648;13.208;2024-02-28T13:19:58;5.90;1.00
16154;DHT22;8182;55.648;13.208;2024-02-28T13:22:25;5.90;1.00
16154;DHT22;8182;55.648;13.208;2024-02-28T13:24:52;5.80;1.00
16154;DHT22;8182;55.648;13.208;2024-02-28T13:27:21;5.70;1.00
16154;DHT22;8182;55.648;13.208;2024-02-28T13:29:48;5.70;1.00
16154;DHT22;8182;55.648;13.208;2024-02-28T13:32:15;5.80;1.00
16154;DHT22;8182;55.648;13.208;2024-02-28T13:34:45;5.70;1.00
16154;DHT22;8182;55.648;13.208;2024-02-28T13:37:15;5.80;1.00
16154;DHT22;8182;55.648;13.208;2024-02-28T13:39:45;5.90;1.00
16154;DHT22;8182;55.648;13.208;2024-02-28T13:42:12;5.80;1.00
16154;DHT22;8182;55.648;13.208;2024-02-28T13:44:41;5.90;1.00
16154;DHT22;8182;55.648;13.208;2024-02-28T13:47:10;5.80;1.00
16154;DHT22;8182;55.648;13.208;2024-02-28T13:49:40;5.70;1.00
16154;DHT22;8182;55.648;13.208;2024-02-28T13:52:07;5.70;1.00
16154;DHT22;8182;55.648;13.208;2024-02-28T13:54:34;5.70;1.00
16154;DHT22;8182;55.648;13.208;2024-02-28T13:57:01;5.70;1.00
16154;DHT22;8182;55.648;13.208;2024-02-28T13:59:30;6.00;1.00
16154;DHT22;8182;55.648;13.208;2024-02-28T14:01:58;5.90;1.00
16154;DHT22;8182;55.648;13.208;2024-02-28T14:04:25;6.00;1.00
16154;DHT22;8182;55.648;13.208;2024-02-28T14:06:52;5.90;1.00
16154;DHT22;8182;55.648;13.208;2024-02-28T14:09:18;5.80;1.00
16154;DHT22;8182;55.648;13.208;2024-02-28T14:11:45;6.10;1.00
16154;DHT22;8182;55.648;13.208;2024-02-28T14:14:15;6.00;1.00
16154;DHT22;8182;55.648;13.208;2024-02-28T14:16:45;5.90;1.00
16154;DHT22;8182;55.648;13.208;2024-02-28T14:19:13;5.80;1.00
16154;DHT22;8182;55.648;13.208;2024-02-28T14:21:40;5.90;1.00
16154;DHT22;8182;55.648;13.208;2024-02-28T14:24:13;5.90;1.00
16154;DHT22;8182;55.648;13.208;2024-02-28T14:26:45;5.80;1.00
16154;DHT22;8182;55.648;13.208;2024-02-28T14:29:15;5.70;1.00
16154;DHT22;8182;55.648;13.208;2024-02-28T14:31:45;5.70;1.00
16154;DHT22;8182;55.648;13.208;2024-02-28T14:34:16;5.80;1.00
16154;DHT22;8182;55.648;13.208;2024-02-28T14:36:43;5.80;1.00
16154;DHT22;8182;55.648;13.208;2024-02-28T14:39:10;5.70;1.00
16154;DHT22;8182;55.648;13.208;2024-02-28T14:41:41;5.60;1.00
16154;DHT22;8182;55.648;13.208;2024-02-28T14:44:09;5.70;1.00
16154;DHT22;8182;55.648;13.208;2024-02-28T14:46:36;5.60;1.00
16154;DHT22;8182;55.648;13.208;2024-02-28T14:49:06;5.70;1.00
16154;DHT22;8182;55.648;13.208;2024-02-28T14:51:35;5.70;1.00
16154;DHT22;8182;55.648;13.208;2024-02-28T14:54:02;5.80;1.00
16154;DHT22;8182;55.648;13.208;2024-02-28T14:56:29;5.70;1.00
16154;DHT22;8182;55.648;13.208;2024-02-28T14:58:55;5.70;1.00
16154;DHT22;8182;55.648;13.208;2024-02-28T15:01:22;5.70;1.00
16154;DHT22;8182;55.648;13.208;2024-02-28T15:03:50;5.50;1.00
16154;DHT22;8182;55.648;13.208;2024-02-28T15:06:17;5.60;1.00
16154;DHT22;8182;55.648;13.208;2024-02-28T15:08:45;5.60;1.00
16154;DHT22;8182;55.648;13.208;2024-02-28T15:11:14;5.60;1.00
16154;DHT22;8182;55.648;13.208;2024-02-28T15:13:41;5.50;1.00
16154;DHT22;8182;55.648;13.208;2024-02-28T15:16:08;5.50;1.00
16154;DHT22;8182;55.648;13.208;2024-02-28T15:18:35;5.40;1.00
16154;DHT22;8182;55.648;13.208;2024-02-28T15:21:02;5.40;1.00
16154;DHT22;8182;55.648;13.208;2024-02-28T15:23:29;5.30;1.00
16154;DHT22;8182;55.648;13.208;2024-02-28T15:25:57;5.30;1.00
16154;DHT22;8182;55.648;13.208;2024-02-28T15:28:29;5.30;1.00
16154;DHT22;8182;55.648;13.208;2024-02-28T15:30:56;5.30;1.00
16154;DHT22;8182;55.648;13.208;2024-02-28T15:33:23;5.40;1.00
16154;DHT22;8182;55.648;13.208;2024-02-28T15:35:53;5.40;1.00
16154;DHT22;8182;55.648;13.208;2024-02-28T15:38:20;5.40;1.00
16154;DHT22;8182;55.648;13.208;2024-02-28T15:40:47;5.30;1.00
16154;DHT22;8182;55.648;13.208;2024-02-28T15:43:15;5.20;1.00
16154;DHT22;8182;55.648;13.208;2024-02-28T15:45:45;5.30;1.00
16154;DHT22;8182;55.648;13.208;2024-02-28T15:48:14;5.30;1.00
16154;DHT22;8182;55.648;13.208;2024-02-28T15:50:41;5.20;1.00
16154;DHT22;8182;55.648;13.208;2024-02-28T15:53:08;5.20;1.00
16154;DHT22;8182;55.648;13.208;2024-02-28T15:55:35;5.20;1.00
16154;DHT22;8182;55.648;13.208;2024-02-28T15:58:02;5.20;1.00
16154;DHT22;8182;55.648;13.208;2024-02-28T16:00:30;5.30;1.00
16154;DHT22;8182;55.648;13.208;2024-02-28T16:02:57;5.30;1.00
16154;DHT22;8182;55.648;13.208;2024-02-28T16:05:24;5.30;1.00